Time;durP1;ratioP1;P1;durP2;ratioP2;P2;SDS_P1;SDS_P2;PMS_P1;PMS_P2;Temp;Humidity;BMP_temperature;BMP_pressure;BME280_temperature;BME280_humidity;BME280_pressure;Samples;Min_cycle;Max_cycle;Signal;HPM_P1;HPM_P2
2024/02/13 00:01:33;;;;;;;;;;;;;;;10.45;69.08;99741.48;107587;1255;108233;-64
2024/02/13 00:04:01;;;;;;;;;;;;;;;10.42;69.13;99745.38;107523;1250;99265;-62
2024/02/13 00:06:29;;;;;;;;;;;;;;;10.40;69.15;99742.52;107636;1256;99073;-64
2024/02/13 00:08:58;;;;;;;;;;;;;;;10.38;69.15;99743.64;107622;1251;113412;-63
2024/02/13 00:11:26;;;;;;;;;;;;;;;10.37;69.29;99747.34;107521;1251;108363;-63
2024/02/13 00:13:56;;;;;;;;;;;;;;;10.37;69.28;99749.66;107560;1251;107022;-64
2024/02/13 00:16:26;;;;;;;;;;;;;;;10.36;69.27;99746.85;107609;1251;99265;-64
2024/02/13 00:18:55;;;;;;;;;;;;;;;10.37;69.50;99746.45;107638;1251;99770;-64
2024/02/13 00:21:26;;;;;;;;;;;;;;;10.35;69.51;99748.02;107666;1251;112665;-63
2024/02/13 00:23:56;;;;;;;;;;;;;;;10.32;69.48;99749.94;107573;1252;108672;-62
2024/02/13 00:26:25;;;;;;;;;;;;;;;10.30;69.47;99751.46;107587;1251;109098;-64
2024/02/13 00:28:53;;;;;;;;;;;;;;;10.27;69.57;99756.86;107588;1251;99262;-63
2024/02/13 00:31:21;;;;;;;;;;;;;;;10.25;69.47;99754.77;107585;1251;99170;-63
2024/02/13 00:33:49;;;;;;;;;;;;;;;10.23;69.61;99753.72;107554;1250;113417;-64
2024/02/13 00:36:18;;;;;;;;;;;;;;;10.20;69.70;99749.94;107557;1251;109344;-65
2024/02/13 00:38:46;;;;;;;;;;;;;;;10.17;69.54;99752.33;107541;1251;107858;-63
2024/02/13 00:41:14;;;;;;;;;;;;;;;10.18;69.53;99749.78;107549;1254;99217;-66
2024/02/13 00:43:42;;;;;;;;;;;;;;;10.19;69.29;99740.58;107610;1251;98055;-63
2024/02/13 00:46:12;;;;;;;;;;;;;;;10.19;69.25;99727.29;107580;1251;113203;-64
2024/02/13 00:48:42;;;;;;;;;;;;;;;10.20;69.13;99724.73;107590;1254;108411;-63
2024/02/13 00:51:10;;;;;;;;;;;;;;;10.19;69.00;99724.94;107649;1251;108787;-63
2024/02/13 00:53:39;;;;;;;;;;;;;;;10.18;68.97;99728.59;107551;1254;99272;-63
2024/02/13 00:56:07;;;;;;;;;;;;;;;10.18;68.93;99735.95;107581;1256;99167;-64
2024/02/13 00:58:36;;;;;;;;;;;;;;;10.18;68.74;99738.36;107556;1254;112980;-64
2024/02/13 01:01:04;;;;;;;;;;;;;;;10.16;68.86;99737.11;107550;1251;107879;-64
2024/02/13 01:03:34;;;;;;;;;;;;;;;10.15;68.82;99730.55;107565;1251;108567;-63
2024/02/13 01:06:07;;;;;;;;;;;;;;;10.15;68.76;99730.73;107564;1257;99183;-63
2024/02/13 01:08:37;;;;;;;;;;;;;;;10.16;69.00;99723.61;107626;1251;99144;-63
2024/02/13 01:11:07;;;;;;;;;;;;;;;10.18;68.80;99723.77;107612;1251;113403;-63
2024/02/13 01:13:37;;;;;;;;;;;;;;;10.20;68.69;99726.52;107554;1251;108051;-64
2024/02/13 01:16:06;;;;;;;;;;;;;;;10.19;68.69;99728.53;107539;1257;107726;-64
2024/02/13 01:18:35;;;;;;;;;;;;;;;10.15;68.71;99735.36;107693;1251;99184;-64
2024/02/13 01:21:05;;;;;;;;;;;;;;;10.10;68.85;99736.07;107612;1256;99355;-63
2024/02/13 01:23:34;;;;;;;;;;;;;;;10.05;68.96;99742.36;107628;1256;114096;-64
2024/02/13 01:26:03;;;;;;;;;;;;;;;9.98;68.87;99744.46;107622;1251;108595;-64
2024/02/13 01:28:35;;;;;;;;;;;;;;;9.94;69.15;99755.81;107553;1250;108490;-64
2024/02/13 01:31:03;;;;;;;;;;;;;;;9.89;69.27;99757.73;107594;1251;99063;-63
2024/02/13 01:33:33;;;;;;;;;;;;;;;9.85;69.50;99760.13;107565;1252;99217;-63
2024/02/13 01:36:04;;;;;;;;;;;;;;;9.82;69.57;99759.58;107594;1251;113264;-64
2024/02/13 01:38:32;;;;;;;;;;;;;;;9.79;69.43;99758.05;107553;1257;108930;-69
2024/02/13 01:41:01;;;;;;;;;;;;;;;9.77;69.49;99760.18;107562;1257;108597;-64
2024/02/13 01:43:32;;;;;;;;;;;;;;;9.77;69.64;99763.14;107562;1251;99181;-64
2024/02/13 01:46:02;;;;;;;;;;;;;;;9.75;69.71;99758.29;107593;1252;99282;-68
2024/02/13 01:48:31;;;;;;;;;;;;;;;9.73;69.57;99759.21;107602;1251;111857;-67
2024/02/13 01:51:04;;;;;;;;;;;;;;;9.72;69.40;99766.10;107560;1251;108088;-63
2024/02/13 01:53:33;;;;;;;;;;;;;;;9.66;69.62;99765.64;107621;1256;106921;-63
2024/02/13 01:56:02;;;;;;;;;;;;;;;9.62;69.49;99768.16;107525;1254;99176;-64
2024/02/13 01:58:31;;;;;;;;;;;;;;;9.57;69.66;99778.02;107597;1251;99101;-63
2024/02/13 02:01:00;;;;;;;;;;;;;;;9.51;69.60;99791.95;107574;1251;112563;-63
2024/02/13 02:03:32;;;;;;;;;;;;;;;9.48;69.75;99791.02;107649;1251;107733;-63
2024/02/13 02:06:02;;;;;;;;;;;;;;;9.44;69.99;99781.63;107519;1251;107050;-64
2024/02/13 02:08:32;;;;;;;;;;;;;;;9.38;69.82;99777.70;107534;1251;99448;-65
2024/02/13 02:11:00;;;;;;;;;;;;;;;9.31;69.76;99780.35;107609;1256;99387;-64
2024/02/13 02:13:29;;;;;;;;;;;;;;;9.25;69.86;99788.28;107575;1251;113476;-62
2024/02/13 02:15:57;;;;;;;;;;;;;;;9.13;70.01;99797.86;107584;1255;108683;-62
2024/02/13 02:18:26;;;;;;;;;;;;;;;9.00;70.22;99798.77;107493;1251;108399;-63
2024/02/13 02:20:56;;;;;;;;;;;;;;;8.91;70.40;99802.64;107488;1254;99284;-64
2024/02/13 02:23:26;;;;;;;;;;;;;;;8.83;70.96;99804.17;107554;1256;99959;-64
2024/02/13 02:25:55;;;;;;;;;;;;;;;8.79;70.87;99805.86;107574;1257;113523;-65
2024/02/13 02:28:24;;;;;;;;;;;;;;;8.79;70.95;99802.10;107571;1254;108360;-66
2024/02/13 02:30:54;;;;;;;;;;;;;;;8.77;71.19;99805.48;107515;1251;108377;-65
2024/02/13 02:33:22;;;;;;;;;;;;;;;8.73;71.41;99810.95;107523;1254;99226;-65
2024/02/13 02:35:51;;;;;;;;;;;;;;;8.73;71.62;99813.00;107509;1251;99057;-63
2024/02/13 02:38:20;;;;;;;;;;;;;;;8.74;71.56;99809.66;107642;1256;113791;-63
2024/02/13 02:40:49;;;;;;;;;;;;;;;8.77;71.43;99805.07;107600;1257;107777;-63
2024/02/13 02:43:19;;;;;;;;;;;;;;;8.80;71.51;99801.48;107539;1255;109719;-66
2024/02/13 02:45:47;;;;;;;;;;;;;;;8.82;71.50;99796.83;107559;1252;99301;-63
2024/02/13 02:48:18;;;;;;;;;;;;;;;8.85;71.35;99799.36;107546;1256;99182;-65
2024/02/13 02:50:46;;;;;;;;;;;;;;;8.88;71.09;99799.41;107604;1257;111963;-65
2024/02/13 02:53:15;;;;;;;;;;;;;;;8.90;71.09;99801.37;107542;1254;109559;-64
2024/02/13 02:55:48;;;;;;;;;;;;;;;8.91;71.19;99804.30;107550;1251;108275;-64
2024/02/13 02:58:16;;;;;;;;;;;;;;;8.91;71.08;99809.87;107525;1251;99281;-63
2024/02/13 03:00:44;;;;;;;;;;;;;;;8.90;71.08;99807.39;107539;1255;99119;-64
2024/02/13 03:03:12;;;;;;;;;;;;;;;8.91;70.93;99798.04;107577;1251;112455;-63
2024/02/13 03:05:41;;;;;;;;;;;;;;;8.90;70.88;99801.35;107549;1251;108656;-65
2024/02/13 03:08:11;;;;;;;;;;;;;;;8.90;70.80;99806.17;107549;1257;108308;-65
2024/02/13 03:10:40;;;;;;;;;;;;;;;8.93;70.89;99809.42;107542;1256;99275;-64
2024/02/13 03:13:09;;;;;;;;;;;;;;;8.95;70.78;99809.45;107591;1257;99082;-65
2024/02/13 03:15:37;;;;;;;;;;;;;;;8.98;70.97;99809.49;107615;1251;113112;-64
2024/02/13 03:18:06;;;;;;;;;;;;;;;9.01;70.82;99813.02;107571;1257;108187;-65
2024/02/13 03:20:36;;;;;;;;;;;;;;;9.02;70.71;99813.64;107602;1254;107570;-66
2024/02/13 03:23:04;;;;;;;;;;;;;;;9.03;70.85;99818.73;107607;1251;99176;-66
2024/02/13 03:25:32;;;;;;;;;;;;;;;9.04;70.67;99820.02;107553;1255;99266;-64
2024/02/13 03:28:02;;;;;;;;;;;;;;;9.05;70.77;99819.40;107536;1257;113207;-66
2024/02/13 03:30:31;;;;;;;;;;;;;;;9.05;70.73;99824.92;107617;1254;108712;-64
2024/02/13 03:33:00;;;;;;;;;;;;;;;9.05;70.69;99822.09;107495;1255;107375;-63
2024/02/13 03:35:30;;;;;;;;;;;;;;;9.01;70.69;99818.88;107649;1250;99176;-62
2024/02/13 03:37:59;;;;;;;;;;;;;;;8.98;70.65;99818.50;107607;1251;99108;-63
2024/02/13 03:40:27;;;;;;;;;;;;;;;8.96;70.68;99819.88;107517;1254;112647;-64
2024/02/13 03:42:55;;;;;;;;;;;;;;;8.96;70.69;99820.83;107634;1251;108536;-64
2024/02/13 03:45:24;;;;;;;;;;;;;;;8.94;70.62;99817.61;107553;1251;107880;-66
2024/02/13 03:47:52;;;;;;;;;;;;;;;8.91;70.76;99820.73;107561;1256;99269;-63
2024/02/13 03:50:22;;;;;;;;;;;;;;;8.88;70.80;99818.69;107589;1251;99084;-66
2024/02/13 03:52:51;;;;;;;;;;;;;;;8.86;70.63;99824.98;107647;1254;112082;-65
2024/02/13 03:55:19;;;;;;;;;;;;;;;8.83;70.53;99833.52;107622;1257;108447;-64
2024/02/13 03:57:49;;;;;;;;;;;;;;;8.81;70.67;99834.61;107532;1251;106018;-64
2024/02/13 04:00:18;;;;;;;;;;;;;;;8.76;70.70;99835.90;107601;1256;99176;-63
2024/02/13 04:02:46;;;;;;;;;;;;;;;8.73;70.69;99838.77;107563;1257;99080;-63
2024/02/13 04:05:15;;;;;;;;;;;;;;;8.69;70.70;99837.73;107647;1254;112583;-64
2024/02/13 04:07:44;;;;;;;;;;;;;;;8.66;70.86;99846.04;107601;1251;108028;-64
2024/02/13 04:10:12;;;;;;;;;;;;;;;8.63;70.87;99853.45;107589;1251;108250;-65
2024/02/13 04:12:40;;;;;;;;;;;;;;;8.62;70.96;99855.32;107596;1251;99188;-63
2024/02/13 04:15:12;;;;;;;;;;;;;;;8.60;70.98;99861.81;107579;1251;99074;-63
2024/02/13 04:17:40;;;;;;;;;;;;;;;8.53;71.06;99869.59;107583;1251;113043;-64
2024/02/13 04:20:09;;;;;;;;;;;;;;;8.38;71.08;99877.74;107643;1251;108587;-63
2024/02/13 04:22:38;;;;;;;;;;;;;;;8.25;71.22;99877.52;107566;1251;107635;-64
2024/02/13 04:25:07;;;;;;;;;;;;;;;8.19;71.47;99873.98;107571;1254;99198;-63
2024/02/13 04:27:36;;;;;;;;;;;;;;;8.20;71.68;99868.33;107604;1254;99268;-63
2024/02/13 04:30:08;;;;;;;;;;;;;;;8.23;71.79;99869.14;107570;1251;113078;-63
2024/02/13 04:32:37;;;;;;;;;;;;;;;8.23;71.61;99876.11;107614;1251;107881;-65
2024/02/13 04:35:10;;;;;;;;;;;;;;;8.23;71.74;99881.48;107605;1254;107275;-66
2024/02/13 04:37:38;;;;;;;;;;;;;;;8.24;71.72;99884.55;107589;1254;99078;-66
2024/02/13 04:40:08;;;;;;;;;;;;;;;8.28;71.87;99889.70;107567;1255;99268;-66
2024/02/13 04:42:40;;;;;;;;;;;;;;;8.31;71.85;99893.25;107641;1253;112371;-65
2024/02/13 04:45:09;;;;;;;;;;;;;;;8.33;71.72;99892.52;107601;1256;108295;-65
2024/02/13 04:47:37;;;;;;;;;;;;;;;8.32;71.54;99884.20;107519;1256;107325;-64
2024/02/13 04:50:06;;;;;;;;;;;;;;;8.30;71.39;99880.98;107591;1254;99268;-64
2024/02/13 04:52:35;;;;;;;;;;;;;;;8.27;71.45;99886.94;107577;1253;99188;-66
2024/02/13 04:55:03;;;;;;;;;;;;;;;8.24;71.52;99891.31;107523;1254;113254;-66
2024/02/13 04:57:33;;;;;;;;;;;;;;;8.20;71.31;99898.17;107496;1254;108195;-66
2024/02/13 05:00:13;;;;;;;;;;;;;;;8.11;71.31;99901.11;107524;1256;108495;-65
2024/02/13 05:02:46;;;;;;;;;;;;;;;8.06;71.44;99904.83;107578;1254;99193;-65
2024/02/13 05:08:06;;;;;;;;;;;;;;;7.88;71.81;99916.24;107549;1254;112993;-66
2024/02/13 05:10:34;;;;;;;;;;;;;;;7.81;71.92;99918.86;107548;1254;107434;-65
2024/02/13 05:13:03;;;;;;;;;;;;;;;7.75;72.05;99924.04;107487;1254;108582;-63
2024/02/13 05:15:31;;;;;;;;;;;;;;;7.69;71.88;99928.28;107545;1255;99200;-65
2024/02/13 05:18:00;;;;;;;;;;;;;;;7.62;71.76;99935.16;107568;1254;99186;-64
2024/02/13 05:20:28;;;;;;;;;;;;;;;7.56;72.12;99937.89;107585;1257;113629;-64
2024/02/13 05:22:58;;;;;;;;;;;;;;;7.54;72.41;99941.46;107611;1254;107912;-64
2024/02/13 05:25:27;;;;;;;;;;;;;;;7.52;72.37;99942.86;107567;1253;108631;-64
2024/02/13 05:27:56;;;;;;;;;;;;;;;7.51;72.46;99949.88;107570;1254;99169;-63
2024/02/13 05:30:24;;;;;;;;;;;;;;;7.51;72.46;99953.23;107589;1256;99278;-64
2024/02/13 05:32:52;;;;;;;;;;;;;;;7.51;72.58;99957.88;107555;1252;112783;-64
2024/02/13 05:35:20;;;;;;;;;;;;;;;7.52;72.70;99960.11;107561;1254;107390;-64
2024/02/13 05:37:51;;;;;;;;;;;;;;;7.51;72.38;99959.66;107525;1250;107178;-65
2024/02/13 05:40:20;;;;;;;;;;;;;;;7.51;72.52;99966.48;107363;1251;99253;-64
2024/02/13 05:42:48;;;;;;;;;;;;;;;7.52;72.50;99966.59;107377;1251;99220;-66
2024/02/13 05:45:17;;;;;;;;;;;;;;;7.50;72.52;99969.93;107466;1251;112582;-66
2024/02/13 05:47:45;;;;;;;;;;;;;;;7.46;72.25;99975.80;107410;1251;107082;-64
2024/02/13 05:50:16;;;;;;;;;;;;;;;7.45;72.20;99985.41;107433;1251;108126;-62
2024/02/13 05:52:47;;;;;;;;;;;;;;;7.43;72.38;99988.08;107406;1251;99170;-65
2024/02/13 05:55:16;;;;;;;;;;;;;;;7.43;72.69;99988.23;107366;1251;99256;-65
2024/02/13 05:57:44;;;;;;;;;;;;;;;7.45;72.68;99987.73;107419;1251;112951;-65
2024/02/13 06:00:14;;;;;;;;;;;;;;;7.48;72.79;99989.91;107531;1251;106713;-64
2024/02/13 06:02:43;;;;;;;;;;;;;;;7.52;72.88;99986.35;107465;1251;109190;-63
2024/02/13 06:05:14;;;;;;;;;;;;;;;7.57;72.86;99989.52;107530;1251;99177;-64
2024/02/13 06:07:44;;;;;;;;;;;;;;;7.60;72.59;99990.00;107521;1250;99149;-66
2024/02/13 06:10:12;;;;;;;;;;;;;;;7.63;72.70;99986.83;107427;1251;112851;-67
2024/02/13 06:12:41;;;;;;;;;;;;;;;7.68;72.57;99986.39;107524;1251;108626;-63
2024/02/13 06:15:10;;;;;;;;;;;;;;;7.73;72.76;99992.89;107358;1254;108392;-64
2024/02/13 06:17:38;;;;;;;;;;;;;;;7.77;72.73;99991.63;107545;1254;99180;-64
2024/02/13 06:20:08;;;;;;;;;;;;;;;7.81;72.72;99988.59;107448;1251;99087;-64
2024/02/13 06:22:37;;;;;;;;;;;;;;;7.87;72.83;99983.46;107492;1254;113555;-64
2024/02/13 06:25:05;;;;;;;;;;;;;;;7.93;72.92;99986.70;107405;1251;108535;-64
2024/02/13 06:27:35;;;;;;;;;;;;;;;7.98;72.97;99987.63;107377;1251;108626;-62
2024/02/13 06:30:04;;;;;;;;;;;;;;;7.99;73.16;99991.15;107405;1251;99080;-63
2024/02/13 06:32:32;;;;;;;;;;;;;;;8.00;73.10;99994.12;107481;1250;99168;-66
2024/02/13 06:35:01;;;;;;;;;;;;;;;8.03;73.04;99990.99;107520;1251;112391;-65
2024/02/13 06:37:29;;;;;;;;;;;;;;;8.07;72.99;99993.29;107545;1253;107973;-64
2024/02/13 06:39:58;;;;;;;;;;;;;;;8.13;73.16;99990.98;107435;1254;108346;-62
2024/02/13 06:42:26;;;;;;;;;;;;;;;8.21;73.27;99998.11;107482;1253;99192;-63
2024/02/13 06:44:54;;;;;;;;;;;;;;;8.31;73.38;100006.01;107523;1251;99269;-62
2024/02/13 06:47:25;;;;;;;;;;;;;;;8.39;73.30;100005.56;107495;1254;112279;-61
2024/02/13 06:49:54;;;;;;;;;;;;;;;8.47;73.23;100008.77;107389;1251;107395;-63
2024/02/13 06:52:22;;;;;;;;;;;;;;;8.57;73.17;100004.88;107393;1251;107246;-61
2024/02/13 06:54:50;;;;;;;;;;;;;;;8.65;72.96;100001.61;107374;1251;99202;-62
2024/02/13 06:57:19;;;;;;;;;;;;;;;8.71;72.81;100003.27;107342;1251;99207;-63
2024/02/13 06:59:48;;;;;;;;;;;;;;;8.76;72.79;100000.95;107444;1251;113155;-64
2024/02/13 07:02:16;;;;;;;;;;;;;;;8.83;72.72;100002.86;107424;1251;108589;-62
2024/02/13 07:04:45;;;;;;;;;;;;;;;8.92;72.77;100004.88;107376;1250;108168;-66
2024/02/13 07:07:14;;;;;;;;;;;;;;;9.00;72.57;100003.91;107437;1251;99265;-65
2024/02/13 07:10:02;;;;;;;;;;;;;;;9.09;72.58;100003.45;107378;1251;99054;-64
2024/02/13 07:12:31;;;;;;;;;;;;;;;9.17;72.38;100007.70;107439;1251;111202;-64
2024/02/13 07:14:59;;;;;;;;;;;;;;;9.27;72.53;100010.12;107462;1254;108025;-62
2024/02/13 07:17:27;;;;;;;;;;;;;;;9.36;72.16;100008.91;107523;1251;108445;-62
2024/02/13 07:19:57;;;;;;;;;;;;;;;9.44;71.98;100009.30;107490;1251;99162;-61
2024/02/13 07:22:26;;;;;;;;;;;;;;;9.53;71.94;100009.48;107545;1254;99115;-63
2024/02/13 07:24:54;;;;;;;;;;;;;;;9.64;72.08;100015.20;107571;1251;113422;-65
2024/02/13 07:27:23;;;;;;;;;;;;;;;9.73;71.90;100015.98;107501;1251;108443;-64
2024/02/13 07:29:54;;;;;;;;;;;;;;;9.83;71.63;100016.23;107488;1251;108617;-65
2024/02/13 07:32:22;;;;;;;;;;;;;;;9.93;71.37;100013.33;107499;1251;99250;-64
2024/02/13 07:34:53;;;;;;;;;;;;;;;10.05;71.37;100015.36;107524;1251;99638;-62
2024/02/13 07:37:23;;;;;;;;;;;;;;;10.17;71.17;100017.74;107621;1251;113333;-59
2024/02/13 07:39:51;;;;;;;;;;;;;;;10.28;70.79;100018.13;107631;1251;107974;-65
2024/02/13 07:42:19;;;;;;;;;;;;;;;10.34;70.58;100025.91;107506;1251;107480;-63
2024/02/13 07:44:49;;;;;;;;;;;;;;;10.41;70.17;100025.80;107522;1254;99173;-63
2024/02/13 07:47:17;;;;;;;;;;;;;;;10.46;69.72;100026.05;107589;1251;99179;-62
2024/02/13 07:49:46;;;;;;;;;;;;;;;10.51;69.60;100029.86;107602;1251;113179;-62
2024/02/13 07:52:17;;;;;;;;;;;;;;;10.57;69.51;100031.56;107604;1251;107728;-63
2024/02/13 07:54:46;;;;;;;;;;;;;;;10.66;69.38;100031.59;107517;1250;108701;-62
2024/02/13 07:57:16;;;;;;;;;;;;;;;10.73;68.81;100033.76;107604;1251;99266;-64
2024/02/13 07:59:45;;;;;;;;;;;;;;;10.76;68.68;100033.45;107616;1251;99066;-67
2024/02/13 08:02:14;;;;;;;;;;;;;;;10.85;68.52;100034.92;107562;1251;113706;-63
2024/02/13 08:04:43;;;;;;;;;;;;;;;10.91;68.10;100042.36;107639;1251;107369;-62
2024/02/13 08:07:12;;;;;;;;;;;;;;;10.93;67.96;100042.45;107541;1251;109381;-63
2024/02/13 08:09:40;;;;;;;;;;;;;;;10.97;67.96;100046.08;107534;1251;99277;-63
2024/02/13 08:12:08;;;;;;;;;;;;;;;11.01;67.81;100045.14;107507;1251;99216;-64
2024/02/13 08:14:38;;;;;;;;;;;;;;;11.06;67.53;100049.48;107606;1251;112580;-65
2024/02/13 08:17:08;;;;;;;;;;;;;;;11.12;67.32;100048.48;107520;1250;107794;-66
2024/02/13 08:19:40;;;;;;;;;;;;;;;11.19;67.11;100050.67;107559;1251;107511;-64
2024/02/13 08:22:10;;;;;;;;;;;;;;;11.23;67.04;100050.06;107539;1251;99160;-64
2024/02/13 08:24:38;;;;;;;;;;;;;;;11.25;66.93;100052.90;107576;1251;99100;-64
2024/02/13 08:27:07;;;;;;;;;;;;;;;11.21;66.30;100053.25;107619;1250;112340;-64
2024/02/13 08:29:35;;;;;;;;;;;;;;;11.13;66.29;100048.33;107639;1251;108591;-64
2024/02/13 08:32:06;;;;;;;;;;;;;;;11.06;66.38;100051.03;107587;1251;106765;-63
2024/02/13 08:34:35;;;;;;;;;;;;;;;10.99;66.26;100050.70;107561;1251;99189;-64
2024/02/13 08:37:03;;;;;;;;;;;;;;;10.90;66.43;100052.31;107521;1251;99197;-64
2024/02/13 08:39:32;;;;;;;;;;;;;;;10.89;66.76;100052.95;107581;1251;113207;-66
2024/02/13 08:42:01;;;;;;;;;;;;;;;10.92;66.99;100057.69;107629;1251;107879;-65
2024/02/13 08:44:30;;;;;;;;;;;;;;;11.00;67.02;100059.02;107514;1251;107956;-65
2024/02/13 08:46:59;;;;;;;;;;;;;;;11.08;67.03;100062.84;107053;1250;674603;-65
2024/02/13 08:49:28;;;;;;;;;;;;;;;11.18;66.99;100062.75;107575;1250;99267;-63
2024/02/13 08:51:57;;;;;;;;;;;;;;;11.30;66.95;100063.91;107468;1251;113986;-62
2024/02/13 08:54:25;;;;;;;;;;;;;;;11.40;66.40;100062.49;107483;1251;109137;-64
2024/02/13 08:56:54;;;;;;;;;;;;;;;11.48;65.64;100062.58;107486;1251;108415;-64
2024/02/13 08:59:22;;;;;;;;;;;;;;;11.53;65.49;100064.72;107446;1251;99178;-65
2024/02/13 09:01:51;;;;;;;;;;;;;;;11.61;64.71;100069.31;107469;1251;99082;-66
2024/02/13 09:04:20;;;;;;;;;;;;;;;11.65;64.55;100073.70;107510;1251;112421;-65
2024/02/13 09:06:48;;;;;;;;;;;;;;;11.75;64.83;100074.69;107466;1250;107540;-64
2024/02/13 09:09:16;;;;;;;;;;;;;;;11.85;65.03;100078.83;107484;1251;107689;-64
2024/02/13 09:11:45;;;;;;;;;;;;;;;11.95;64.57;100080.66;107476;1251;99064;-62
2024/02/13 09:14:14;;;;;;;;;;;;;;;12.05;64.79;100080.95;107498;1251;99159;-65
2024/02/13 09:16:42;;;;;;;;;;;;;;;12.13;64.70;100084.59;107507;1251;113385;-64
2024/02/13 09:19:11;;;;;;;;;;;;;;;12.18;64.61;100090.16;107502;1251;108252;-63
2024/02/13 09:21:40;;;;;;;;;;;;;;;12.23;64.37;100095.91;107484;1251;109252;-63
2024/02/13 09:24:09;;;;;;;;;;;;;;;12.25;64.00;100098.25;107514;1250;99175;-63
2024/02/13 09:26:38;;;;;;;;;;;;;;;12.25;63.74;100100.56;107484;1251;99293;-63
2024/02/13 09:29:06;;;;;;;;;;;;;;;12.21;62.97;100102.21;107428;1251;113997;-63
2024/02/13 09:31:35;;;;;;;;;;;;;;;12.19;62.98;100102.45;107509;1251;108969;-64
2024/02/13 09:34:06;;;;;;;;;;;;;;;12.20;62.97;100102.11;107481;1251;107283;-63
2024/02/13 09:36:37;;;;;;;;;;;;;;;12.24;62.88;100100.38;107431;1251;99165;-64
2024/02/13 09:39:08;;;;;;;;;;;;;;;12.25;62.73;100103.47;107525;1250;99166;-63
2024/02/13 09:41:39;;;;;;;;;;;;;;;12.34;63.05;100104.67;107490;1251;113796;-63
2024/02/13 09:44:08;;;;;;;;;;;;;;;12.43;62.81;100104.39;107474;1251;108740;-62
2024/02/13 09:46:38;;;;;;;;;;;;;;;12.47;62.65;100104.67;107501;1254;108369;-63
2024/02/13 09:49:07;;;;;;;;;;;;;;;12.50;62.51;100103.81;107507;1251;99176;-64
2024/02/13 09:51:37;;;;;;;;;;;;;;;12.52;62.53;100104.72;107501;1251;99070;-63
2024/02/13 09:54:06;;;;;;;;;;;;;;;12.54;62.46;100104.85;107653;1250;113587;-62
2024/02/13 09:56:35;;;;;;;;;;;;;;;12.52;61.60;100107.77;107560;1251;106983;-63
2024/02/13 09:59:04;;;;;;;;;;;;;;;12.47;61.31;100109.00;107474;1254;107505;-63
2024/02/13 10:01:32;;;;;;;;;;;;;;;12.46;61.80;100103.36;107552;1251;99191;-64
2024/02/13 10:04:02;;;;;;;;;;;;;;;12.51;61.69;100104.08;107532;1251;99153;-64
2024/02/13 10:06:30;;;;;;;;;;;;;;;12.56;61.61;100100.65;107595;1251;113504;-64
2024/02/13 10:09:00;;;;;;;;;;;;;;;12.63;61.61;100101.88;107572;1251;109797;-62
2024/02/13 10:11:30;;;;;;;;;;;;;;;12.71;61.60;100102.13;107538;1251;108577;-62
2024/02/13 10:13:59;;;;;;;;;;;;;;;12.75;61.62;100102.38;107497;1250;99160;-64
2024/02/13 10:16:27;;;;;;;;;;;;;;;12.78;61.54;100102.44;107531;1251;99080;-63
2024/02/13 10:19:02;;;;;;;;;;;;;;;12.81;61.46;100106.28;107496;1254;113247;-64
2024/02/13 10:21:31;;;;;;;;;;;;;;;12.81;61.36;100102.27;107537;1251;108488;-64
2024/02/13 10:24:06;;;;;;;;;;;;;;;12.80;61.29;100099.58;107534;1251;108676;-63
2024/02/13 10:26:36;;;;;;;;;;;;;;;12.79;61.45;100100.92;107511;1251;99188;-63
2024/02/13 10:29:05;;;;;;;;;;;;;;;12.80;61.38;100102.27;107568;1251;99071;-63
2024/02/13 10:31:36;;;;;;;;;;;;;;;12.81;61.40;100098.86;107519;1251;111850;-63
2024/02/13 10:34:09;;;;;;;;;;;;;;;12.84;61.25;100098.76;107550;1250;108697;-63
2024/02/13 10:36:42;;;;;;;;;;;;;;;12.87;60.36;100095.41;107577;1251;107956;-63
2024/02/13 10:39:12;;;;;;;;;;;;;;;12.83;60.71;100096.47;107497;1251;99256;-63
2024/02/13 10:41:41;;;;;;;;;;;;;;;12.86;61.05;100099.58;107517;1250;99182;-63
2024/02/13 10:44:11;;;;;;;;;;;;;;;12.89;61.20;100099.31;107551;1251;113361;-64
2024/02/13 10:46:41;;;;;;;;;;;;;;;12.91;61.35;100100.93;107563;1254;108321;-62
2024/02/13 10:49:12;;;;;;;;;;;;;;;12.87;61.29;100107.14;107510;1251;108686;-63
2024/02/13 10:51:41;;;;;;;;;;;;;;;12.83;61.09;100106.75;107508;1251;99268;-63
2024/02/13 10:54:11;;;;;;;;;;;;;;;12.82;61.11;100105.08;107548;1251;99176;-64
2024/02/13 10:56:39;;;;;;;;;;;;;;;12.75;61.13;100105.14;107598;1251;112360;-62
2024/02/13 10:59:08;;;;;;;;;;;;;;;12.69;61.38;100105.80;107571;1251;107917;-63
2024/02/13 11:01:38;;;;;;;;;;;;;;;12.60;61.05;100106.94;107573;1251;107676;-63
2024/02/13 11:04:06;;;;;;;;;;;;;;;12.50;61.53;100105.83;107508;1251;99227;-63
2024/02/13 11:06:34;;;;;;;;;;;;;;;12.45;61.62;100104.40;107632;1250;99636;-62
2024/02/13 11:09:12;;;;;;;;;;;;;;;12.42;61.80;100110.56;107526;1251;112777;-63
2024/02/13 11:11:47;;;;;;;;;;;;;;;12.40;61.85;100111.95;107547;1251;107940;-63
2024/02/13 11:14:16;;;;;;;;;;;;;;;12.38;61.77;100109.24;107528;1251;108039;-62
2024/02/13 11:16:57;;;;;;;;;;;;;;;12.48;61.84;100105.69;107564;1254;99172;-64
2024/02/13 11:19:36;;;;;;;;;;;;;;;12.61;61.85;100103.52;107518;1251;99059;-62
2024/02/13 11:22:09;;;;;;;;;;;;;;;12.80;61.78;100106.19;107522;1251;111769;-64
2024/02/13 11:24:42;;;;;;;;;;;;;;;12.92;61.16;100105.32;107571;1251;108624;-63
2024/02/13 11:27:16;;;;;;;;;;;;;;;12.99;60.92;100109.13;107524;1251;108587;-63
2024/02/13 11:30:00;;;;;;;;;;;;;;;13.07;60.76;100111.94;107497;1251;99284;-63
2024/02/13 11:32:39;;;;;;;;;;;;;;;13.13;60.83;100108.02;107598;1250;99271;-63
2024/02/13 11:35:11;;;;;;;;;;;;;;;13.18;60.55;100109.80;107515;1251;112018;-63
2024/02/13 11:37:41;;;;;;;;;;;;;;;13.25;60.55;100104.13;107575;1251;108287;-64
2024/02/13 11:40:12;;;;;;;;;;;;;;;13.30;60.22;100106.31;107605;1251;107663;-64
2024/02/13 11:42:41;;;;;;;;;;;;;;;13.27;59.96;100105.61;107542;1251;99166;-63
2024/02/13 11:45:31;;;;;;;;;;;;;;;13.22;60.07;100113.14;107594;1251;99070;-63
2024/02/13 11:48:00;;;;;;;;;;;;;;;13.12;60.19;100114.37;107544;1251;112589;-62
2024/02/13 11:50:29;;;;;;;;;;;;;;;13.05;60.14;100115.74;107613;1251;108523;-62
2024/02/13 11:52:58;;;;;;;;;;;;;;;12.97;60.27;100114.09;107564;1251;107979;-62
2024/02/13 11:55:26;;;;;;;;;;;;;;;12.91;60.47;100119.79;107557;1251;99256;-63
2024/02/13 11:57:55;;;;;;;;;;;;;;;12.88;60.35;100121.05;107585;1251;99256;-63
2024/02/13 12:00:25;;;;;;;;;;;;;;;12.81;60.25;100123.73;107571;1254;113772;-63
2024/02/13 12:02:54;;;;;;;;;;;;;;;12.73;60.25;100121.39;107575;1251;108199;-65
2024/02/13 12:05:28;;;;;;;;;;;;;;;12.59;60.11;100125.75;107549;1254;108242;-64
2024/02/13 12:07:56;;;;;;;;;;;;;;;12.45;60.32;100126.11;107601;1251;99063;-63
2024/02/13 12:10:25;;;;;;;;;;;;;;;12.39;60.61;100130.18;107596;1251;99058;-64
2024/02/13 12:12:53;;;;;;;;;;;;;;;12.37;60.65;100129.12;107587;1250;113122;-64
2024/02/13 12:15:22;;;;;;;;;;;;;;;12.31;61.01;100132.34;107602;1251;108465;-62
2024/02/13 12:17:54;;;;;;;;;;;;;;;12.12;61.30;100132.77;107561;1254;108692;-62
2024/02/13 12:20:28;;;;;;;;;;;;;;;11.95;61.89;100136.36;107544;1251;99156;-63
2024/02/13 12:23:05;;;;;;;;;;;;;;;11.76;62.43;100142.06;107610;1251;99173;-62
2024/02/13 12:25:35;;;;;;;;;;;;;;;11.63;62.78;100145.46;107590;1254;112696;-62
2024/02/13 12:28:05;;;;;;;;;;;;;;;11.57;62.80;100145.68;107614;1251;108104;-62
2024/02/13 12:30:34;;;;;;;;;;;;;;;11.60;62.95;100146.25;107585;1251;107570;-63
2024/02/13 12:33:06;;;;;;;;;;;;;;;11.64;62.99;100150.73;107593;1251;99198;-63
2024/02/13 12:35:36;;;;;;;;;;;;;;;11.61;62.95;100148.20;107612;1250;99058;-62
2024/02/13 12:38:12;;;;;;;;;;;;;;;11.56;62.88;100154.95;107583;1251;113637;-62
2024/02/13 12:40:41;;;;;;;;;;;;;;;11.52;63.21;100154.42;107594;1250;108355;-62
2024/02/13 12:43:15;;;;;;;;;;;;;;;11.49;63.20;100154.79;107645;1251;105531;-63
2024/02/13 12:45:46;;;;;;;;;;;;;;;11.47;63.34;100157.84;107594;1251;99124;-62